Cape Express — HO5337 — position and weather

sailwx.info

Track history (hours):
 
Tides and Currents Weather Stations Pressure Air Temp Water Temp Dewpoint Dewpoint Depression Visibility Wind Speed Wind Dir Waves Ship Positions

Cape Express

Last reported at 2017-Oct-16 07:39 UTC. Time now 2017-Oct-18 07:42 UTC.
Position N 25°57' W 079°33'.

Length 29 m; draft 2.1 m.

Type: Cargo ship. MMSI: 370269000.

Date/timePositionNaut miles runAvg speedWind from/ knotsBaromVisibWave heightAir tempDewpointWater temp
2017-Oct-16 07:39N 25°57' W 079°33'1 8.1
2017-Oct-16 07:28N 25°58' W 079°35'4 8.3
2017-Oct-16 07:00N 25°59' W 079°39'4 8.3
2017-Oct-16 06:30N 25°60' W 079°43'4 7.9
2017-Oct-16 06:00N 26°01' W 079°47'4 7.9
2017-Oct-16 05:30N 26°02' W 079°51'4 7.8
2017-Oct-16 05:00N 26°03' W 079°56'4 8.2
2017-Oct-16 04:30N 26°04' W 080°00'5 9.3
2017-Oct-16 04:00N 26°06' W 080°05'2 4.8
2017-Oct-16 03:30N 26°04' W 080°07'1 1.6
2017-Oct-16 03:00N 26°04' W 080°08'0 0.0
2017-Oct-16 02:30N 26°04' W 080°08'0 0.0
2017-Oct-16 02:00N 26°04' W 080°08'0 0.0
2017-Oct-16 01:30N 26°04' W 080°08'0 0.0
2017-Oct-16 01:00N 26°04' W 080°08'0 0.0
2017-Oct-16 00:30N 26°04' W 080°08'0 0.0
2017-Oct-16 00:00N 26°04' W 080°08'0 0.0
2017-Oct-15 23:30N 26°04' W 080°08'2 4.5
2017-Oct-15 23:00N 26°06' W 080°07'510.1
2017-Oct-15 22:30N 26°05' W 080°01'510.0
2017-Oct-15 22:00N 26°05' W 079°55'5 9.6
2017-Oct-15 21:30N 26°05' W 079°50'5 9.0
2017-Oct-15 21:00N 26°05' W 079°45'5 9.2
2017-Oct-15 20:30N 26°05' W 079°40'19 0.5
2017-Oct-14 03:20N 26°24' W 079°43'310.0
2017-Oct-14 02:59N 26°22' W 079°46'510.0
2017-Oct-14 02:30N 26°18' W 079°50'5 9.5
2017-Oct-14 02:00N 26°15' W 079°54'5 8.8
2017-Oct-14 01:24N 26°12' W 079°58'3 8.2
2017-Oct-14 00:59N 26°09' W 080°01'4 7.6
2017-Oct-14 00:28N 26°06' W 080°04'3 6.7
2017-Oct-13 23:58N 26°04' W 080°07'1 2.5
2017-Oct-13 23:30N 26°04' W 080°08'0 0.0
2017-Oct-13 23:00N 26°04' W 080°08'0 0.0
2017-Oct-13 22:30N 26°04' W 080°08'0 0.0
2017-Oct-13 22:00N 26°04' W 080°08'0 0.0
2017-Oct-13 21:30N 26°04' W 080°08'0 0.0
2017-Oct-13 21:00N 26°04' W 080°08'0 0.0
2017-Oct-13 20:30N 26°04' W 080°08'0 0.0
2017-Oct-13 20:00N 26°04' W 080°08'0 0.0
2017-Oct-13 19:30N 26°04' W 080°08'0 0.0
2017-Oct-13 19:00N 26°04' W 080°08'0 0.0
2017-Oct-13 18:30N 26°04' W 080°08'0 0.0
2017-Oct-13 18:00N 26°04' W 080°08'0 0.0
2017-Oct-13 17:30N 26°04' W 080°08'0 0.0
2017-Oct-13 17:00N 26°04' W 080°08'0 0.0
2017-Oct-13 16:30N 26°04' W 080°08'0 0.0
2017-Oct-13 16:00N 26°04' W 080°08'0 0.0
2017-Oct-13 15:30N 26°04' W 080°08'0 0.0
2017-Oct-13 15:00N 26°04' W 080°08'0 0.0
2017-Oct-13 14:30N 26°04' W 080°08'0 0.0
2017-Oct-13 14:00N 26°04' W 080°08'0 0.0
2017-Oct-13 13:30N 26°04' W 080°08'0 0.0
2017-Oct-13 13:00N 26°04' W 080°08'0 0.0
2017-Oct-13 12:30N 26°04' W 080°08'0 0.0
2017-Oct-13 12:00N 26°04' W 080°08'1 1.5
2017-Oct-13 11:30N 26°04' W 080°07'2 4.8
2017-Oct-13 11:00N 26°06' W 080°05'3 5.6
2017-Oct-13 10:30N 26°04' W 080°02'2 5.0
2017-Oct-13 10:00N 26°03' W 079°60'3 5.3
2017-Oct-13 09:30N 26°02' W 079°57'3 5.7
2017-Oct-13 09:00N 26°00' W 079°55'3 5.8
2017-Oct-13 08:30N 25°59' W 079°52'3 5.7
2017-Oct-13 08:00N 25°58' W 079°49'3 4.9
2017-Oct-13 07:26N 25°57' W 079°46'1 3.2
2017-Oct-13 07:00N 25°56' W 079°45'2 4.2
2017-Oct-13 06:30N 25°56' W 079°42'3 5.0
2017-Oct-13 06:00N 25°54' W 079°40'3 5.2
2017-Oct-13 05:30N 25°52' W 079°38'8 0.4
2017-Oct-12 10:01N 25°45' W 079°34'1 7.7
2017-Oct-12 09:54N 25°45' W 079°35'3 7.4
2017-Oct-12 09:30N 25°47' W 079°38'4 7.1
2017-Oct-12 09:00N 25°49' W 079°41'4 7.0
2017-Oct-12 08:29N 25°51' W 079°44'3 6.7
2017-Oct-12 08:00N 25°53' W 079°47'3 6.6
2017-Oct-12 07:30N 25°56' W 079°50'3 6.4
2017-Oct-12 07:00N 25°57' W 079°53'3 6.3
2017-Oct-12 06:30N 25°59' W 079°55'3 6.4
2017-Oct-12 06:00N 26°01' W 079°58'3 6.6
2017-Oct-12 05:30N 26°03' W 080°01'4 7.1
2017-Oct-12 05:00N 26°05' W 080°04'3 5.9
2017-Oct-12 04:30N 26°04' W 080°07'1 1.2
2017-Oct-12 04:00N 26°04' W 080°08'0 0.0
2017-Oct-12 03:30N 26°04' W 080°08'0 0.0
2017-Oct-12 03:00N 26°04' W 080°08'0 0.0
2017-Oct-12 02:30N 26°04' W 080°08'0 0.0
2017-Oct-12 02:00N 26°04' W 080°08'0 0.1
2017-Oct-12 01:30N 26°04' W 080°08'2 3.7
2017-Oct-12 01:00N 26°05' W 080°07'4 8.6
2017-Oct-12 00:30N 26°05' W 080°02'5 9.6
2017-Oct-12 00:00N 26°04' W 079°57'5 9.6
2017-Oct-11 23:30N 26°02' W 079°52'5 9.8
2017-Oct-11 23:00N 26°01' W 079°47'510.1
2017-Oct-11 22:30N 25°59' W 079°41'  
2017-Oct-09 03:59N 26°02' W 079°52'5 9.0
2017-Oct-09 03:27N 26°04' W 079°57'4 9.2
2017-Oct-09 02:58N 26°05' W 080°02'4 9.4
2017-Oct-09 02:30N 26°06' W 080°07'2 4.2
2017-Oct-09 02:00N 26°04' W 080°08'0 0.0
2017-Oct-09 01:30N 26°04' W 080°08'0 0.0
2017-Oct-09 01:00N 26°04' W 080°08'0 0.0
2017-Oct-09 00:30N 26°04' W 080°08'0 0.0
2017-Oct-08 23:59N 26°04' W 080°08'0 0.0
2017-Oct-08 23:30N 26°04' W 080°08'0 0.0
2017-Oct-08 23:00N 26°04' W 080°08'0 0.0
2017-Oct-08 22:30N 26°04' W 080°08'0 0.0
2017-Oct-08 22:00N 26°04' W 080°08'0 0.0
2017-Oct-08 21:30N 26°04' W 080°08'0 0.0
2017-Oct-08 21:00N 26°04' W 080°08'0 0.0
2017-Oct-08 20:30N 26°04' W 080°08'0 0.0
2017-Oct-08 20:00N 26°04' W 080°08'0 0.0
2017-Oct-08 19:30N 26°04' W 080°08'0 0.0
2017-Oct-08 19:00N 26°04' W 080°08'0 0.0
2017-Oct-08 18:30N 26°04' W 080°08'0 0.0
2017-Oct-08 18:00N 26°04' W 080°08'0 0.0
2017-Oct-08 17:30N 26°04' W 080°08'0 0.0
2017-Oct-08 17:00N 26°04' W 080°08'0 0.0
2017-Oct-08 16:30N 26°04' W 080°08'0 0.0
2017-Oct-08 16:00N 26°04' W 080°08'0 0.0
2017-Oct-08 15:30N 26°04' W 080°08'0 0.0
2017-Oct-08 15:00N 26°04' W 080°08'0 0.0
2017-Oct-08 14:30N 26°04' W 080°08'0 0.9
2017-Oct-08 14:00N 26°04' W 080°07'3 6.9
2017-Oct-08 13:30N 26°05' W 080°04'510.1
2017-Oct-08 13:00N 26°04' W 079°59'510.1
2017-Oct-08 12:30N 26°02' W 079°53'510.1
2017-Oct-08 12:00N 26°01' W 079°48'5 9.7
2017-Oct-08 11:28N 25°60' W 079°42'5 9.3
2017-Oct-08 10:55N 25°59' W 079°37'2 0.0
2017-Oct-06 12:45N 25°58' W 079°35'2 7.2
2017-Oct-06 12:27N 25°59' W 079°38'4 7.9
2017-Oct-06 12:00N 25°59' W 079°41'4 8.0
2017-Oct-06 11:30N 26°01' W 079°46'4 8.2
2017-Oct-06 11:00N 26°02' W 079°50'4 8.4
2017-Oct-06 10:30N 26°03' W 079°54'4 8.4
2017-Oct-06 10:00N 26°04' W 079°59'4 8.9
2017-Oct-06 09:30N 26°05' W 080°04'3 6.1
2017-Oct-06 09:00N 26°04' W 080°07'1 1.4
2017-Oct-06 08:24N 26°04' W 080°08'0 0.0
2017-Oct-06 07:57N 26°04' W 080°08'  
Track history (hours):
 
Tides and Currents Weather Stations Pressure Air Temp Water Temp Dewpoint Dewpoint Depression Visibility Wind Speed Wind Dir Waves Ship Positions

Cape Express

Last reported at 2017-Oct-16 07:39 UTC. Time now 2017-Oct-18 07:42 UTC.
Position N 25°57' W 079°33'.

Length 29 m; draft 2.1 m.

Type: Cargo ship. MMSI: 370269000.

Date/timePositionNaut miles runAvg speedWind from/ knotsBaromVisibWave heightAir tempDewpointWater temp
2017-Oct-16 07:39N 25°57' W 079°33'1 8.1
2017-Oct-16 07:28N 25°58' W 079°35'4 8.3
2017-Oct-16 07:00N 25°59' W 079°39'4 8.3
2017-Oct-16 06:30N 25°60' W 079°43'4 7.9
2017-Oct-16 06:00N 26°01' W 079°47'4 7.9
2017-Oct-16 05:30N 26°02' W 079°51'4 7.8
2017-Oct-16 05:00N 26°03' W 079°56'4 8.2
2017-Oct-16 04:30N 26°04' W 080°00'5 9.3
2017-Oct-16 04:00N 26°06' W 080°05'2 4.8
2017-Oct-16 03:30N 26°04' W 080°07'1 1.6
2017-Oct-16 03:00N 26°04' W 080°08'0 0.0
2017-Oct-16 02:30N 26°04' W 080°08'0 0.0
2017-Oct-16 02:00N 26°04' W 080°08'0 0.0
2017-Oct-16 01:30N 26°04' W 080°08'0 0.0
2017-Oct-16 01:00N 26°04' W 080°08'0 0.0
2017-Oct-16 00:30N 26°04' W 080°08'0 0.0
2017-Oct-16 00:00N 26°04' W 080°08'0 0.0
2017-Oct-15 23:30N 26°04' W 080°08'2 4.5
2017-Oct-15 23:00N 26°06' W 080°07'510.1
2017-Oct-15 22:30N 26°05' W 080°01'510.0
2017-Oct-15 22:00N 26°05' W 079°55'5 9.6
2017-Oct-15 21:30N 26°05' W 079°50'5 9.0
2017-Oct-15 21:00N 26°05' W 079°45'5 9.2
2017-Oct-15 20:30N 26°05' W 079°40'19 0.5
2017-Oct-14 03:20N 26°24' W 079°43'310.0
2017-Oct-14 02:59N 26°22' W 079°46'510.0
2017-Oct-14 02:30N 26°18' W 079°50'5 9.5
2017-Oct-14 02:00N 26°15' W 079°54'5 8.8
2017-Oct-14 01:24N 26°12' W 079°58'3 8.2
2017-Oct-14 00:59N 26°09' W 080°01'4 7.6
2017-Oct-14 00:28N 26°06' W 080°04'3 6.7
2017-Oct-13 23:58N 26°04' W 080°07'1 2.5
2017-Oct-13 23:30N 26°04' W 080°08'0 0.0
2017-Oct-13 23:00N 26°04' W 080°08'0 0.0
2017-Oct-13 22:30N 26°04' W 080°08'0 0.0
2017-Oct-13 22:00N 26°04' W 080°08'0 0.0
2017-Oct-13 21:30N 26°04' W 080°08'0 0.0
2017-Oct-13 21:00N 26°04' W 080°08'0 0.0
2017-Oct-13 20:30N 26°04' W 080°08'0 0.0
2017-Oct-13 20:00N 26°04' W 080°08'0 0.0
2017-Oct-13 19:30N 26°04' W 080°08'0 0.0
2017-Oct-13 19:00N 26°04' W 080°08'0 0.0
2017-Oct-13 18:30N 26°04' W 080°08'0 0.0
2017-Oct-13 18:00N 26°04' W 080°08'0 0.0
2017-Oct-13 17:30N 26°04' W 080°08'0 0.0
2017-Oct-13 17:00N 26°04' W 080°08'0 0.0
2017-Oct-13 16:30N 26°04' W 080°08'0 0.0
2017-Oct-13 16:00N 26°04' W 080°08'0 0.0
2017-Oct-13 15:30N 26°04' W 080°08'0 0.0
2017-Oct-13 15:00N 26°04' W 080°08'0 0.0
2017-Oct-13 14:30N 26°04' W 080°08'0 0.0
2017-Oct-13 14:00N 26°04' W 080°08'0 0.0
2017-Oct-13 13:30N 26°04' W 080°08'0 0.0
2017-Oct-13 13:00N 26°04' W 080°08'0 0.0
2017-Oct-13 12:30N 26°04' W 080°08'0 0.0
2017-Oct-13 12:00N 26°04' W 080°08'1 1.5
2017-Oct-13 11:30N 26°04' W 080°07'2 4.8
2017-Oct-13 11:00N 26°06' W 080°05'3 5.6
2017-Oct-13 10:30N 26°04' W 080°02'2 5.0
2017-Oct-13 10:00N 26°03' W 079°60'3 5.3
2017-Oct-13 09:30N 26°02' W 079°57'3 5.7
2017-Oct-13 09:00N 26°00' W 079°55'3 5.8
2017-Oct-13 08:30N 25°59' W 079°52'3 5.7
2017-Oct-13 08:00N 25°58' W 079°49'3 4.9
2017-Oct-13 07:26N 25°57' W 079°46'1 3.2
2017-Oct-13 07:00N 25°56' W 079°45'2 4.2
2017-Oct-13 06:30N 25°56' W 079°42'3 5.0
2017-Oct-13 06:00N 25°54' W 079°40'3 5.2
2017-Oct-13 05:30N 25°52' W 079°38'8 0.4
2017-Oct-12 10:01N 25°45' W 079°34'1 7.7
2017-Oct-12 09:54N 25°45' W 079°35'3 7.4
2017-Oct-12 09:30N 25°47' W 079°38'4 7.1
2017-Oct-12 09:00N 25°49' W 079°41'4 7.0
2017-Oct-12 08:29N 25°51' W 079°44'3 6.7
2017-Oct-12 08:00N 25°53' W 079°47'3 6.6
2017-Oct-12 07:30N 25°56' W 079°50'3 6.4
2017-Oct-12 07:00N 25°57' W 079°53'3 6.3
2017-Oct-12 06:30N 25°59' W 079°55'3 6.4
2017-Oct-12 06:00N 26°01' W 079°58'3 6.6
2017-Oct-12 05:30N 26°03' W 080°01'4 7.1
2017-Oct-12 05:00N 26°05' W 080°04'3 5.9
2017-Oct-12 04:30N 26°04' W 080°07'1 1.2
2017-Oct-12 04:00N 26°04' W 080°08'0 0.0
2017-Oct-12 03:30N 26°04' W 080°08'0 0.0
2017-Oct-12 03:00N 26°04' W 080°08'0 0.0
2017-Oct-12 02:30N 26°04' W 080°08'0 0.0
2017-Oct-12 02:00N 26°04' W 080°08'0 0.1
2017-Oct-12 01:30N 26°04' W 080°08'2 3.7
2017-Oct-12 01:00N 26°05' W 080°07'4 8.6
2017-Oct-12 00:30N 26°05' W 080°02'5 9.6
2017-Oct-12 00:00N 26°04' W 079°57'5 9.6
2017-Oct-11 23:30N 26°02' W 079°52'5 9.8
2017-Oct-11 23:00N 26°01' W 079°47'510.1
2017-Oct-11 22:30N 25°59' W 079°41'  
2017-Oct-09 03:59N 26°02' W 079°52'5 9.0
2017-Oct-09 03:27N 26°04' W 079°57'4 9.2
2017-Oct-09 02:58N 26°05' W 080°02'4 9.4
2017-Oct-09 02:30N 26°06' W 080°07'2 4.2
2017-Oct-09 02:00N 26°04' W 080°08'0 0.0
2017-Oct-09 01:30N 26°04' W 080°08'0 0.0
2017-Oct-09 01:00N 26°04' W 080°08'0 0.0
2017-Oct-09 00:30N 26°04' W 080°08'0 0.0
2017-Oct-08 23:59N 26°04' W 080°08'0 0.0
2017-Oct-08 23:30N 26°04' W 080°08'0 0.0
2017-Oct-08 23:00N 26°04' W 080°08'0 0.0
2017-Oct-08 22:30N 26°04' W 080°08'0 0.0
2017-Oct-08 22:00N 26°04' W 080°08'0 0.0
2017-Oct-08 21:30N 26°04' W 080°08'0 0.0
2017-Oct-08 21:00N 26°04' W 080°08'0 0.0
2017-Oct-08 20:30N 26°04' W 080°08'0 0.0
2017-Oct-08 20:00N 26°04' W 080°08'0 0.0
2017-Oct-08 19:30N 26°04' W 080°08'0 0.0
2017-Oct-08 19:00N 26°04' W 080°08'0 0.0
2017-Oct-08 18:30N 26°04' W 080°08'0 0.0
2017-Oct-08 18:00N 26°04' W 080°08'0 0.0
2017-Oct-08 17:30N 26°04' W 080°08'0 0.0
2017-Oct-08 17:00N 26°04' W 080°08'0 0.0
2017-Oct-08 16:30N 26°04' W 080°08'0 0.0
2017-Oct-08 16:00N 26°04' W 080°08'0 0.0
2017-Oct-08 15:30N 26°04' W 080°08'0 0.0
2017-Oct-08 15:00N 26°04' W 080°08'0 0.0
2017-Oct-08 14:30N 26°04' W 080°08'0 0.9
2017-Oct-08 14:00N 26°04' W 080°07'3 6.9
2017-Oct-08 13:30N 26°05' W 080°04'510.1
2017-Oct-08 13:00N 26°04' W 079°59'510.1
2017-Oct-08 12:30N 26°02' W 079°53'510.1
2017-Oct-08 12:00N 26°01' W 079°48'5 9.7
2017-Oct-08 11:28N 25°60' W 079°42'5 9.3
2017-Oct-08 10:55N 25°59' W 079°37'2 0.0
2017-Oct-06 12:45N 25°58' W 079°35'2 7.2
2017-Oct-06 12:27N 25°59' W 079°38'4 7.9
2017-Oct-06 12:00N 25°59' W 079°41'4 8.0
2017-Oct-06 11:30N 26°01' W 079°46'4 8.2
2017-Oct-06 11:00N 26°02' W 079°50'4 8.4
2017-Oct-06 10:30N 26°03' W 079°54'4 8.4
2017-Oct-06 10:00N 26°04' W 079°59'4 8.9
2017-Oct-06 09:30N 26°05' W 080°04'3 6.1
2017-Oct-06 09:00N 26°04' W 080°07'1 1.4
2017-Oct-06 08:24N 26°04' W 080°08'0 0.0
2017-Oct-06 07:57N 26°04' W 080°08'  

Dump ship's entire track history